Fir Grove, Oregon
Current Conditions -  °F | °C
As of 10:15 AM on Monday 20 Oct 2014 (Local Time) from KEUG Reporting Station
Overcast Overcast  
Wind Chill: 58°   Ceiling: 2600
Heat Index: 58°   Visibility: 10mi
Dew Point: 55°   Wind: 8mph
Humidity: 90%   Direction: 160°SSE
Pressure: 29.83"   Gusts: NA
Location:  44.0685°N, 123.082°W
Report Text: KEUG 201715Z 16007KT 10SM FEW009 BKN026 OVC040 14/13 A2983 RMK AO2 RAE1658 VCSH P0000 T01440128
Loading
Personal Weather Stations






























Interactive Weather Map
Tropical Storm Tracking
New forecast layout! Learn more

10-Day Weather Forecast

Advertisements
Track Severe Weather on mobile